Terminal Aerodrome Forecast
Issued by NWS Brownsville, TX

Home | Current Version | Previous Version | Text Only | Print | Product List | Glossary On
Versions: 1 2 3 4 5 6 7 8 9 10 11 12 13 14 15 16 17 18 19 20 21 22
505
FTUS44 KBRO 291120
TAFHRL
TAF
KHRL 291120Z 2912/3012 17021G27KT P6SM BKN017 WS020/18055KT
     FM291500 25012KT P6SM SCT020
     FM291800 35010KT P6SM FEW030
     FM300600 VRB03KT 4SM BR BKN015=

USA.gov is the U.S. government's official web portal to all federal, state and local government web resources and services.